sensor_id;sensor_type;location;lat;lon;timestamp;pressure;altitude;pressure_sealevel;temperature;humidity
22000;BME280;11164;48.818;2.322;2023-08-12T00:00:04;100883.50;;;22.72;50.42
22000;BME280;11164;48.818;2.322;2023-08-12T00:02:39;100867.00;;;22.77;50.25
22000;BME280;11164;48.818;2.322;2023-08-12T00:05:06;100868.66;;;22.78;50.27
22000;BME280;11164;48.818;2.322;2023-08-12T00:07:32;100867.28;;;22.80;50.03
22000;BME280;11164;48.818;2.322;2023-08-12T00:09:58;100862.09;;;22.89;50.12
22000;BME280;11164;48.818;2.322;2023-08-12T00:12:23;100848.59;;;22.93;49.60
22000;BME280;11164;48.818;2.322;2023-08-12T00:14:49;100839.50;;;22.87;49.78
22000;BME280;11164;48.818;2.322;2023-08-12T00:17:14;100831.53;;;22.91;49.74
22000;BME280;11164;48.818;2.322;2023-08-12T00:19:40;100848.88;;;23.07;49.35
22000;BME280;11164;48.818;2.322;2023-08-12T00:22:05;100843.38;;;23.12;49.30
22000;BME280;11164;48.818;2.322;2023-08-12T00:24:30;100837.03;;;23.06;49.71
22000;BME280;11164;48.818;2.322;2023-08-12T00:26:56;100837.28;;;23.04;49.75
22000;BME280;11164;48.818;2.322;2023-08-12T00:29:21;100840.63;;;23.07;49.48
22000;BME280;11164;48.818;2.322;2023-08-12T00:31:47;100838.69;;;23.02;49.74
22000;BME280;11164;48.818;2.322;2023-08-12T00:34:12;100839.78;;;23.11;49.59
22000;BME280;11164;48.818;2.322;2023-08-12T00:36:37;100826.31;;;22.99;50.00
22000;BME280;11164;48.818;2.322;2023-08-12T00:39:03;100832.38;;;23.01;49.89
22000;BME280;11164;48.818;2.322;2023-08-12T00:41:29;100834.56;;;22.99;50.02
22000;BME280;11164;48.818;2.322;2023-08-12T00:43:54;100833.75;;;22.99;50.04
22000;BME280;11164;48.818;2.322;2023-08-12T00:46:20;100829.91;;;23.05;49.71
22000;BME280;11164;48.818;2.322;2023-08-12T00:48:45;100818.63;;;22.86;50.09
22000;BME280;11164;48.818;2.322;2023-08-12T00:51:11;100826.03;;;22.91;50.21
22000;BME280;11164;48.818;2.322;2023-08-12T00:53:36;100831.00;;;22.94;50.04
22000;BME280;11164;48.818;2.322;2023-08-12T00:56:02;100826.06;;;22.75;50.57
22000;BME280;11164;48.818;2.322;2023-08-12T00:58:28;100841.44;;;22.81;49.97
22000;BME280;11164;48.818;2.322;2023-08-12T01:00:53;100831.00;;;22.63;50.03
22000;BME280;11164;48.818;2.322;2023-08-12T01:03:19;100822.75;;;22.68;49.78
22000;BME280;11164;48.818;2.322;2023-08-12T01:05:46;100818.88;;;22.59;50.35
22000;BME280;11164;48.818;2.322;2023-08-12T01:08:11;100834.28;;;22.49;50.58
22000;BME280;11164;48.818;2.322;2023-08-12T01:10:39;100828.78;;;22.55;50.42
22000;BME280;11164;48.818;2.322;2023-08-12T01:13:23;100805.72;;;22.66;50.16
22000;BME280;11164;48.818;2.322;2023-08-12T01:15:53;100808.19;;;22.83;49.39
22000;BME280;11164;48.818;2.322;2023-08-12T01:18:21;100804.31;;;22.58;50.14
22000;BME280;11164;48.818;2.322;2023-08-12T01:20:47;100818.31;;;22.46;50.54
22000;BME280;11164;48.818;2.322;2023-08-12T01:23:13;100825.47;;;22.37;50.93
22000;BME280;11164;48.818;2.322;2023-08-12T01:25:39;100830.69;;;22.34;50.81
22000;BME280;11164;48.818;2.322;2023-08-12T01:28:05;100819.41;;;22.35;50.49
22000;BME280;11164;48.818;2.322;2023-08-12T01:30:33;100819.97;;;22.37;50.71
22000;BME280;11164;48.818;2.322;2023-08-12T01:35:41;100822.72;;;22.32;51.13
22000;BME280;11164;48.818;2.322;2023-08-12T01:38:08;100816.09;;;22.23;50.86
22000;BME280;11164;48.818;2.322;2023-08-12T01:40:36;100808.41;;;22.20;51.28
22000;BME280;11164;48.818;2.322;2023-08-12T01:43:04;100809.50;;;22.29;51.03
22000;BME280;11164;48.818;2.322;2023-08-12T01:45:32;100812.53;;;22.27;51.33
22000;BME280;11164;48.818;2.322;2023-08-12T01:47:58;100798.81;;;22.27;51.31
22000;BME280;11164;48.818;2.322;2023-08-12T01:50:23;100801.53;;;22.27;51.17
22000;BME280;11164;48.818;2.322;2023-08-12T01:52:49;100801.53;;;22.27;50.96
22000;BME280;11164;48.818;2.322;2023-08-12T01:55:14;100800.47;;;22.28;50.90
22000;BME280;11164;48.818;2.322;2023-08-12T01:57:40;100801.00;;;22.25;51.13
22000;BME280;11164;48.818;2.322;2023-08-12T02:00:05;100791.38;;;22.28;51.25
22000;BME280;11164;48.818;2.322;2023-08-12T02:02:31;100791.94;;;22.30;50.91
22000;BME280;11164;48.818;2.322;2023-08-12T02:04:56;100779.31;;;22.39;50.99
22000;BME280;11164;48.818;2.322;2023-08-12T02:07:22;100790.84;;;22.41;50.98
22000;BME280;11164;48.818;2.322;2023-08-12T02:09:47;100783.69;;;22.40;51.11
22000;BME280;11164;48.818;2.322;2023-08-12T02:12:12;100788.91;;;22.37;51.05
22000;BME280;11164;48.818;2.322;2023-08-12T02:14:38;100794.13;;;22.38;51.04
22000;BME280;11164;48.818;2.322;2023-08-12T02:17:03;100790.84;;;22.31;51.34
22000;BME280;11164;48.818;2.322;2023-08-12T02:19:32;100791.38;;;22.28;51.60
22000;BME280;11164;48.818;2.322;2023-08-12T02:21:58;100784.25;;;22.27;51.46
22000;BME280;11164;48.818;2.322;2023-08-12T02:24:24;100782.34;;;22.38;51.23
22000;BME280;11164;48.818;2.322;2023-08-12T02:26:49;100780.94;;;22.45;51.10
22000;BME280;11164;48.818;2.322;2023-08-12T02:29:14;100784.81;;;22.39;51.37
22000;BME280;11164;48.818;2.322;2023-08-12T02:31:40;100785.34;;;22.41;51.28
22000;BME280;11164;48.818;2.322;2023-08-12T02:34:05;100790.84;;;22.31;51.59
22000;BME280;11164;48.818;2.322;2023-08-12T02:36:30;100787.81;;;22.27;51.85
22000;BME280;11164;48.818;2.322;2023-08-12T02:38:56;100780.41;;;22.33;51.57
22000;BME280;11164;48.818;2.322;2023-08-12T02:41:21;100777.38;;;22.29;51.74
22000;BME280;11164;48.818;2.322;2023-08-12T02:43:46;100778.75;;;22.27;51.57
22000;BME280;11164;48.818;2.322;2023-08-12T02:46:12;100782.59;;;22.31;51.49
22000;BME280;11164;48.818;2.322;2023-08-12T02:48:40;100780.09;;;22.19;52.16
22000;BME280;11164;48.818;2.322;2023-08-12T02:51:05;100788.63;;;22.28;51.91
22000;BME280;11164;48.818;2.322;2023-08-12T02:53:31;100777.66;;;22.33;51.97
22000;BME280;11164;48.818;2.322;2023-08-12T02:55:56;100779.84;;;22.31;52.07
22000;BME280;11164;48.818;2.322;2023-08-12T02:58:21;100778.75;;;22.32;51.90
22000;BME280;11164;48.818;2.322;2023-08-12T03:00:47;100774.34;;;22.31;52.14
22000;BME280;11164;48.818;2.322;2023-08-12T03:03:12;100775.16;;;22.31;51.72
22000;BME280;11164;48.818;2.322;2023-08-12T03:05:37;100773.00;;;22.34;51.79
22000;BME280;11164;48.818;2.322;2023-08-12T03:08:03;100773.28;;;22.32;51.81
22000;BME280;11164;48.818;2.322;2023-08-12T03:10:29;100768.84;;;22.26;51.96
22000;BME280;11164;48.818;2.322;2023-08-12T03:12:55;100766.13;;;22.31;51.99
22000;BME280;11164;48.818;2.322;2023-08-12T03:15:20;100772.72;;;22.25;51.76
22000;BME280;11164;48.818;2.322;2023-08-12T03:17:46;100775.72;;;22.23;52.06
22000;BME280;11164;48.818;2.322;2023-08-12T03:20:11;100769.13;;;22.29;52.23
22000;BME280;11164;48.818;2.322;2023-08-12T03:22:37;100759.81;;;22.36;52.13
22000;BME280;11164;48.818;2.322;2023-08-12T03:25:03;100754.84;;;22.38;51.84
22000;BME280;11164;48.818;2.322;2023-08-12T03:27:28;100762.84;;;22.44;51.72
22000;BME280;11164;48.818;2.322;2023-08-12T03:29:54;100763.91;;;22.43;52.09
22000;BME280;11164;48.818;2.322;2023-08-12T03:32:19;100751.28;;;22.37;51.87
22000;BME280;11164;48.818;2.322;2023-08-12T03:34:44;100768.03;;;22.30;52.18
22000;BME280;11164;48.818;2.322;2023-08-12T03:37:10;100755.94;;;22.21;52.42
22000;BME280;11164;48.818;2.322;2023-08-12T03:39:35;100752.66;;;22.29;52.11
22000;BME280;11164;48.818;2.322;2023-08-12T03:42:00;100747.69;;;22.26;52.35
22000;BME280;11164;48.818;2.322;2023-08-12T03:44:26;100742.22;;;22.26;52.70
22000;BME280;11164;48.818;2.322;2023-08-12T03:46:51;100744.41;;;22.19;52.80
22000;BME280;11164;48.818;2.322;2023-08-12T03:49:16;100743.88;;;22.22;52.49
22000;BME280;11164;48.818;2.322;2023-08-12T03:51:42;100755.97;;;22.16;52.75
22000;BME280;11164;48.818;2.322;2023-08-12T03:54:07;100749.06;;;22.14;53.19
22000;BME280;11164;48.818;2.322;2023-08-12T03:56:33;100753.47;;;22.15;53.14
22000;BME280;11164;48.818;2.322;2023-08-12T03:58:58;100749.63;;;22.10;52.96
22000;BME280;11164;48.818;2.322;2023-08-12T04:01:23;100745.78;;;22.11;53.20
22000;BME280;11164;48.818;2.322;2023-08-12T04:03:49;100739.75;;;22.09;53.26
22000;BME280;11164;48.818;2.322;2023-08-12T04:06:14;100745.22;;;22.04;53.20
22000;BME280;11164;48.818;2.322;2023-08-12T04:08:40;100741.91;;;22.07;53.25
22000;BME280;11164;48.818;2.322;2023-08-12T04:11:05;100742.19;;;22.01;53.47
22000;BME280;11164;48.818;2.322;2023-08-12T04:13:30;100730.66;;;22.04;53.21
22000;BME280;11164;48.818;2.322;2023-08-12T04:15:56;100721.06;;;22.06;53.41
22000;BME280;11164;48.818;2.322;2023-08-12T04:18:21;100711.16;;;22.05;53.67
22000;BME280;11164;48.818;2.322;2023-08-12T04:20:50;100709.53;;;22.15;53.22
22000;BME280;11164;48.818;2.322;2023-08-12T04:23:16;100715.03;;;22.15;53.42
22000;BME280;11164;48.818;2.322;2023-08-12T04:25:46;100716.13;;;22.19;53.49
22000;BME280;11164;48.818;2.322;2023-08-12T04:28:12;100710.34;;;22.10;53.34
22000;BME280;11164;48.818;2.322;2023-08-12T04:30:46;100715.56;;;22.11;54.06
22000;BME280;11164;48.818;2.322;2023-08-12T04:33:12;100712.56;;;22.23;53.04
22000;BME280;11164;48.818;2.322;2023-08-12T04:35:39;100708.69;;;22.19;53.66
22000;BME280;11164;48.818;2.322;2023-08-12T04:38:04;100712.28;;;22.20;53.36
22000;BME280;11164;48.818;2.322;2023-08-12T04:40:30;100716.94;;;22.29;53.46
22000;BME280;11164;48.818;2.322;2023-08-12T04:42:56;100715.59;;;22.27;53.56
22000;BME280;11164;48.818;2.322;2023-08-12T04:45:21;100709.53;;;22.20;53.84
22000;BME280;11164;48.818;2.322;2023-08-12T04:47:47;100710.91;;;22.12;53.86
22000;BME280;11164;48.818;2.322;2023-08-12T04:50:12;100715.56;;;22.17;54.10
22000;BME280;11164;48.818;2.322;2023-08-12T04:52:37;100722.72;;;22.23;53.98
22000;BME280;11164;48.818;2.322;2023-08-12T04:55:03;100718.06;;;22.18;53.65
22000;BME280;11164;48.818;2.322;2023-08-12T04:57:29;100718.06;;;22.18;53.69
22000;BME280;11164;48.818;2.322;2023-08-12T04:59:55;100715.56;;;22.11;54.13
22000;BME280;11164;48.818;2.322;2023-08-12T05:02:21;100707.06;;;22.08;54.09
22000;BME280;11164;48.818;2.322;2023-08-12T05:04:50;100713.66;;;22.17;54.21
22000;BME280;11164;48.818;2.322;2023-08-12T05:07:16;100718.59;;;22.20;53.93
22000;BME280;11164;48.818;2.322;2023-08-12T05:09:41;100718.06;;;22.13;53.92
22000;BME280;11164;48.818;2.322;2023-08-12T05:12:09;100712.03;;;22.16;54.18
22000;BME280;11164;48.818;2.322;2023-08-12T05:14:35;100716.66;;;22.31;53.66
22000;BME280;11164;48.818;2.322;2023-08-12T05:17:00;100711.44;;;22.40;53.78
22000;BME280;11164;48.818;2.322;2023-08-12T05:19:25;100713.09;;;22.36;53.66
22000;BME280;11164;48.818;2.322;2023-08-12T05:21:51;100710.09;;;22.11;54.14
22000;BME280;11164;48.818;2.322;2023-08-12T05:24:16;100723.53;;;22.18;53.94
22000;BME280;11164;48.818;2.322;2023-08-12T05:26:42;100725.47;;;22.02;54.84
22000;BME280;11164;48.818;2.322;2023-08-12T05:31:43;100726.56;;;22.22;54.21
22000;BME280;11164;48.818;2.322;2023-08-12T05:34:09;100724.38;;;22.19;54.40
22000;BME280;11164;48.818;2.322;2023-08-12T05:36:35;100719.97;;;22.18;54.35
22000;BME280;11164;48.818;2.322;2023-08-12T05:39:01;100721.59;;;22.08;54.36
22000;BME280;11164;48.818;2.322;2023-08-12T05:41:26;100723.00;;;22.16;54.50
22000;BME280;11164;48.818;2.322;2023-08-12T05:43:51;100737.53;;;22.06;54.51
22000;BME280;11164;48.818;2.322;2023-08-12T05:46:17;100742.41;;;21.84;55.21
22000;BME280;11164;48.818;2.322;2023-08-12T05:48:42;100741.88;;;21.92;54.66
22000;BME280;11164;48.818;2.322;2023-08-12T05:51:08;100750.38;;;21.90;54.80
22000;BME280;11164;48.818;2.322;2023-08-12T05:53:33;100743.00;;;22.01;54.47
22000;BME280;11164;48.818;2.322;2023-08-12T05:55:58;100741.91;;;22.07;54.38
22000;BME280;11164;48.818;2.322;2023-08-12T05:58:24;100730.94;;;22.12;54.31
22000;BME280;11164;48.818;2.322;2023-08-12T06:00:49;100736.16;;;22.09;54.35
22000;BME280;11164;48.818;2.322;2023-08-12T06:03:15;100722.44;;;22.14;53.82
22000;BME280;11164;48.818;2.322;2023-08-12T06:05:43;100729.03;;;22.03;54.49
22000;BME280;11164;48.818;2.322;2023-08-12T06:08:08;100737.53;;;22.06;54.31
22000;BME280;11164;48.818;2.322;2023-08-12T06:10:34;100737.28;;;22.18;53.71
22000;BME280;11164;48.818;2.322;2023-08-12T06:13:00;100724.88;;;22.05;54.14
22000;BME280;11164;48.818;2.322;2023-08-12T06:15:25;100721.06;;;22.17;54.19
22000;BME280;11164;48.818;2.322;2023-08-12T06:17:50;100732.84;;;22.07;54.46
22000;BME280;11164;48.818;2.322;2023-08-12T06:20:16;100729.56;;;22.15;53.82
22000;BME280;11164;48.818;2.322;2023-08-12T06:22:41;100726.31;;;22.34;53.78
22000;BME280;11164;48.818;2.322;2023-08-12T06:25:07;100723.28;;;22.30;53.91
22000;BME280;11164;48.818;2.322;2023-08-12T06:27:32;100721.34;;;22.30;53.93
22000;BME280;11164;48.818;2.322;2023-08-12T06:29:58;100724.91;;;22.36;53.33
22000;BME280;11164;48.818;2.322;2023-08-12T06:32:23;100726.31;;;22.28;53.69
22000;BME280;11164;48.818;2.322;2023-08-12T06:34:48;100730.41;;;22.31;53.61
22000;BME280;11164;48.818;2.322;2023-08-12T06:37:13;100734.25;;;22.40;53.33
22000;BME280;11164;48.818;2.322;2023-08-12T06:39:39;100732.88;;;22.33;53.84
22000;BME280;11164;48.818;2.322;2023-08-12T06:42:04;100731.50;;;22.40;53.39
22000;BME280;11164;48.818;2.322;2023-08-12T06:44:30;100724.91;;;22.52;53.20
22000;BME280;11164;48.818;2.322;2023-08-12T06:46:55;100732.59;;;22.55;53.34
22000;BME280;11164;48.818;2.322;2023-08-12T06:49:20;100732.88;;;22.38;53.84
22000;BME280;11164;48.818;2.322;2023-08-12T06:51:46;100727.13;;;22.49;53.55
22000;BME280;11164;48.818;2.322;2023-08-12T06:54:11;100716.94;;;22.76;52.96
22000;BME280;11164;48.818;2.322;2023-08-12T06:56:36;100719.97;;;22.69;52.99
22000;BME280;11164;48.818;2.322;2023-08-12T06:59:02;100728.47;;;22.73;53.27
22000;BME280;11164;48.818;2.322;2023-08-12T07:01:27;100733.69;;;22.90;53.21
22000;BME280;11164;48.818;2.322;2023-08-12T07:03:53;100733.91;;;23.03;53.17
22000;BME280;11164;48.818;2.322;2023-08-12T07:06:18;100734.19;;;23.02;53.12
22000;BME280;11164;48.818;2.322;2023-08-12T07:08:45;100737.25;;;22.90;53.89
22000;BME280;11164;48.818;2.322;2023-08-12T07:11:11;100745.22;;;22.92;53.75
22000;BME280;11164;48.818;2.322;2023-08-12T07:13:36;100731.47;;;22.86;53.48
22000;BME280;11164;48.818;2.322;2023-08-12T07:16:02;100736.38;;;23.15;53.24
22000;BME280;11164;48.818;2.322;2023-08-12T07:18:27;100736.59;;;23.39;52.85
22000;BME280;11164;48.818;2.322;2023-08-12T07:20:54;100744.38;;;23.01;53.44
22000;BME280;11164;48.818;2.322;2023-08-12T07:23:19;100736.91;;;23.17;53.03
22000;BME280;11164;48.818;2.322;2023-08-12T07:25:48;100748.47;;;23.14;53.33
22000;BME280;11164;48.818;2.322;2023-08-12T07:28:13;100753.75;;;22.85;53.50
22000;BME280;11164;48.818;2.322;2023-08-12T07:30:39;100755.69;;;22.69;54.17
22000;BME280;11164;48.818;2.322;2023-08-12T07:33:04;100746.09;;;22.66;53.71
22000;BME280;11164;48.818;2.322;2023-08-12T07:35:30;100759.81;;;22.51;53.99
22000;BME280;11164;48.818;2.322;2023-08-12T07:37:55;100773.22;;;22.06;54.44
22000;BME280;11164;48.818;2.322;2023-08-12T07:40:21;100778.59;;;21.70;54.90
22000;BME280;11164;48.818;2.322;2023-08-12T07:42:46;100779.53;;;21.33;55.17
22000;BME280;11164;48.818;2.322;2023-08-12T07:45:12;100783.97;;;21.45;54.54
22000;BME280;11164;48.818;2.322;2023-08-12T07:47:38;100776.00;;;21.38;54.23
22000;BME280;11164;48.818;2.322;2023-08-12T07:50:04;100788.94;;;21.53;53.68
22000;BME280;11164;48.818;2.322;2023-08-12T07:52:30;100790.91;;;21.58;53.44
22000;BME280;11164;48.818;2.322;2023-08-12T07:54:55;100796.34;;;21.47;53.70
22000;BME280;11164;48.818;2.322;2023-08-12T07:57:21;100797.16;;;21.48;53.70
22000;BME280;11164;48.818;2.322;2023-08-12T07:59:52;100798.72;;;21.28;53.97
22000;BME280;11164;48.818;2.322;2023-08-12T08:02:17;100801.13;;;21.25;54.01
22000;BME280;11164;48.818;2.322;2023-08-12T08:04:43;100806.31;;;21.21;53.79
22000;BME280;11164;48.818;2.322;2023-08-12T08:07:08;100808.09;;;21.43;53.07
22000;BME280;11164;48.818;2.322;2023-08-12T08:09:34;100809.81;;;21.54;52.81
22000;BME280;11164;48.818;2.322;2023-08-12T08:12:00;100809.56;;;21.55;52.92
22000;BME280;11164;48.818;2.322;2023-08-12T08:14:26;100817.94;;;20.96;54.23
22000;BME280;11164;48.818;2.322;2023-08-12T08:16:52;100816.66;;;21.09;53.96
22000;BME280;11164;48.818;2.322;2023-08-12T08:19:18;100810.41;;;21.18;53.77
22000;BME280;11164;48.818;2.322;2023-08-12T08:21:43;100818.22;;;21.37;52.97
22000;BME280;11164;48.818;2.322;2023-08-12T08:24:09;100809.00;;;21.64;52.42
22000;BME280;11164;48.818;2.322;2023-08-12T08:26:36;100811.28;;;21.82;52.43
22000;BME280;11164;48.818;2.322;2023-08-12T08:29:02;100817.94;;;21.97;52.19
22000;BME280;11164;48.818;2.322;2023-08-12T08:31:28;100803.75;;;22.25;51.80
22000;BME280;11164;48.818;2.322;2023-08-12T08:33:53;100818.31;;;22.46;51.56
22000;BME280;11164;48.818;2.322;2023-08-12T08:36:19;100822.44;;;22.44;51.31
22000;BME280;11164;48.818;2.322;2023-08-12T08:38:44;100819.09;;;22.26;51.78
22000;BME280;11164;48.818;2.322;2023-08-12T08:41:10;100824.91;;;22.25;52.09
22000;BME280;11164;48.818;2.322;2023-08-12T08:43:36;100821.59;;;22.38;51.81
22000;BME280;11164;48.818;2.322;2023-08-12T08:46:02;100831.78;;;22.48;51.71
22000;BME280;11164;48.818;2.322;2023-08-12T08:48:28;100823.25;;;22.34;51.82
22000;BME280;11164;48.818;2.322;2023-08-12T08:50:53;100819.72;;;22.90;50.79
22000;BME280;11164;48.818;2.322;2023-08-12T08:53:19;100800.16;;;23.38;50.14
22000;BME280;11164;48.818;2.322;2023-08-12T08:55:45;100824.19;;;23.82;49.77
22000;BME280;11164;48.818;2.322;2023-08-12T08:58:11;100818.72;;;24.27;48.88
22000;BME280;11164;48.818;2.322;2023-08-12T09:00:38;100815.78;;;24.87;48.20
22000;BME280;11164;48.818;2.322;2023-08-12T09:03:05;100821.38;;;25.35;47.75
22000;BME280;11164;48.818;2.322;2023-08-12T09:05:32;100828.19;;;25.19;48.43
22000;BME280;11164;48.818;2.322;2023-08-12T09:07:59;100828.22;;;24.84;49.34
22000;BME280;11164;48.818;2.322;2023-08-12T09:10:26;100819.41;;;24.03;50.16
22000;BME280;11164;48.818;2.322;2023-08-12T09:12:53;100814.69;;;24.09;50.30
22000;BME280;11164;48.818;2.322;2023-08-12T09:15:19;100817.16;;;24.50;49.65
22000;BME280;11164;48.818;2.322;2023-08-12T09:17:44;100811.25;;;25.01;48.97
22000;BME280;11164;48.818;2.322;2023-08-12T09:20:10;100815.91;;;25.54;47.97
22000;BME280;11164;48.818;2.322;2023-08-12T09:22:41;100815.50;;;25.66;47.95
22000;BME280;11164;48.818;2.322;2023-08-12T09:25:07;100817.00;;;25.58;48.26
22000;BME280;11164;48.818;2.322;2023-08-12T09:27:35;100829.03;;;25.43;48.91
22000;BME280;11164;48.818;2.322;2023-08-12T09:30:03;100828.34;;;25.57;48.46
22000;BME280;11164;48.818;2.322;2023-08-12T09:32:28;100818.28;;;25.13;49.34
22000;BME280;11164;48.818;2.322;2023-08-12T09:34:55;100813.84;;;25.22;48.79
22000;BME280;11164;48.818;2.322;2023-08-12T09:37:22;100823.78;;;25.18;48.52
22000;BME280;11164;48.818;2.322;2023-08-12T09:39:50;100828.91;;;25.54;47.82
22000;BME280;11164;48.818;2.322;2023-08-12T09:42:16;100822.06;;;25.70;47.31
22000;BME280;11164;48.818;2.322;2023-08-12T09:44:42;100829.00;;;26.35;46.31
22000;BME280;11164;48.818;2.322;2023-08-12T09:47:08;100836.06;;;26.41;46.46
22000;BME280;11164;48.818;2.322;2023-08-12T09:49:34;100830.00;;;26.39;46.77
22000;BME280;11164;48.818;2.322;2023-08-12T09:52:01;100834.56;;;26.11;47.01
22000;BME280;11164;48.818;2.322;2023-08-12T09:54:27;100836.50;;;25.43;48.27
22000;BME280;11164;48.818;2.322;2023-08-12T09:56:57;100843.09;;;25.18;48.34
22000;BME280;11164;48.818;2.322;2023-08-12T09:59:24;100838.00;;;24.71;48.67
22000;BME280;11164;48.818;2.322;2023-08-12T10:01:52;100853.78;;;24.61;48.96
22000;BME280;11164;48.818;2.322;2023-08-12T10:04:21;100851.09;;;24.45;49.00
22000;BME280;11164;48.818;2.322;2023-08-12T10:06:48;100845.31;;;24.47;49.00
22000;BME280;11164;48.818;2.322;2023-08-12T10:09:17;100843.00;;;24.64;48.26
22000;BME280;11164;48.818;2.322;2023-08-12T10:11:45;100833.72;;;25.19;47.11
22000;BME280;11164;48.818;2.322;2023-08-12T10:14:11;100837.53;;;25.47;46.46
22000;BME280;11164;48.818;2.322;2023-08-12T10:16:37;100840.19;;;25.57;46.48
22000;BME280;11164;48.818;2.322;2023-08-12T10:19:06;100832.69;;;26.06;45.72
22000;BME280;11164;48.818;2.322;2023-08-12T10:21:36;100832.59;;;26.11;45.92
22000;BME280;11164;48.818;2.322;2023-08-12T10:24:03;100835.13;;;25.89;46.41
22000;BME280;11164;48.818;2.322;2023-08-12T10:26:29;100824.91;;;25.65;46.88
22000;BME280;11164;48.818;2.322;2023-08-12T10:28:55;100837.84;;;25.45;46.93
22000;BME280;11164;48.818;2.322;2023-08-12T10:31:21;100829.38;;;25.37;46.69
22000;BME280;11164;48.818;2.322;2023-08-12T10:33:46;100844.25;;;26.08;45.25
22000;BME280;11164;48.818;2.322;2023-08-12T10:36:15;100836.03;;;26.03;45.17
22000;BME280;11164;48.818;2.322;2023-08-12T10:38:43;100829.31;;;25.66;45.66
22000;BME280;11164;48.818;2.322;2023-08-12T10:41:19;100834.66;;;26.44;43.88
22000;BME280;11164;48.818;2.322;2023-08-12T10:46:31;100836.16;;;26.69;43.28
22000;BME280;11164;48.818;2.322;2023-08-12T10:51:40;100830.81;;;27.52;41.12
22000;BME280;11164;48.818;2.322;2023-08-12T10:54:17;100824.78;;;27.50;41.96
22000;BME280;11164;48.818;2.322;2023-08-12T11:02:16;100820.88;;;26.90;44.00
22000;BME280;11164;48.818;2.322;2023-08-12T11:04:42;100818.00;;;26.49;44.75
22000;BME280;11164;48.818;2.322;2023-08-12T11:07:18;100824.84;;;26.51;43.48
22000;BME280;11164;48.818;2.322;2023-08-12T11:09:44;100815.13;;;26.54;44.24
22000;BME280;11164;48.818;2.322;2023-08-12T11:12:10;100817.94;;;26.35;44.22
22000;BME280;11164;48.818;2.322;2023-08-12T11:14:54;100811.91;;;26.79;40.24
22000;BME280;11164;48.818;2.322;2023-08-12T11:17:19;100816.00;;;26.68;42.97
22000;BME280;11164;48.818;2.322;2023-08-12T11:19:52;100818.50;;;26.32;43.86
22000;BME280;11164;48.818;2.322;2023-08-12T11:22:17;100803.47;;;26.38;43.47
22000;BME280;11164;48.818;2.322;2023-08-12T11:24:43;100807.72;;;26.30;43.48
22000;BME280;11164;48.818;2.322;2023-08-12T11:27:09;100803.72;;;26.03;43.49
22000;BME280;11164;48.818;2.322;2023-08-12T11:29:37;100803.47;;;25.57;44.17
22000;BME280;11164;48.818;2.322;2023-08-12T11:32:02;100804.91;;;25.97;43.17
22000;BME280;11164;48.818;2.322;2023-08-12T11:34:27;100814.09;;;26.50;42.47
22000;BME280;11164;48.818;2.322;2023-08-12T11:36:54;100797.06;;;26.42;42.46
22000;BME280;11164;48.818;2.322;2023-08-12T11:39:19;100807.81;;;26.25;42.76
22000;BME280;11164;48.818;2.322;2023-08-12T11:41:46;100797.97;;;26.00;43.35
22000;BME280;11164;48.818;2.322;2023-08-12T11:44:15;100798.09;;;26.47;41.46
22000;BME280;11164;48.818;2.322;2023-08-12T11:46:40;100798.94;;;26.28;42.60
22000;BME280;11164;48.818;2.322;2023-08-12T11:49:06;100794.38;;;26.70;41.83
22000;BME280;11164;48.818;2.322;2023-08-12T11:51:31;100787.31;;;27.11;40.96
22000;BME280;11164;48.818;2.322;2023-08-12T11:53:58;100786.59;;;27.19;41.11
22000;BME280;11164;48.818;2.322;2023-08-12T11:56:23;100779.50;;;27.82;40.48
22000;BME280;11164;48.818;2.322;2023-08-12T11:58:48;100785.38;;;28.17;39.98
22000;BME280;11164;48.818;2.322;2023-08-12T12:01:15;100777.50;;;27.97;40.60
22000;BME280;11164;48.818;2.322;2023-08-12T12:03:41;100779.44;;;27.74;40.52
22000;BME280;11164;48.818;2.322;2023-08-12T12:06:06;100780.31;;;27.83;40.39
22000;BME280;11164;48.818;2.322;2023-08-12T12:08:32;100778.63;;;28.32;39.82
22000;BME280;11164;48.818;2.322;2023-08-12T12:11:04;100782.19;;;28.24;37.42
22000;BME280;11164;48.818;2.322;2023-08-12T12:13:30;100773.44;;;28.17;39.78
22000;BME280;11164;48.818;2.322;2023-08-12T12:15:55;100782.13;;;28.01;39.92
22000;BME280;11164;48.818;2.322;2023-08-12T12:18:20;100780.44;;;27.78;40.49
22000;BME280;11164;48.818;2.322;2023-08-12T12:20:56;100783.72;;;27.24;37.87
22000;BME280;11164;48.818;2.322;2023-08-12T12:23:22;100783.72;;;26.64;40.91
22000;BME280;11164;48.818;2.322;2023-08-12T12:25:57;100788.78;;;26.89;40.20
22000;BME280;11164;48.818;2.322;2023-08-12T12:28:22;100790.38;;;26.63;40.83
22000;BME280;11164;48.818;2.322;2023-08-12T12:30:47;100789.34;;;27.05;40.03
22000;BME280;11164;48.818;2.322;2023-08-12T12:33:13;100789.56;;;27.09;39.72
22000;BME280;11164;48.818;2.322;2023-08-12T12:35:38;100788.97;;;27.26;39.49
22000;BME280;11164;48.818;2.322;2023-08-12T12:38:03;100786.00;;;27.22;39.33
22000;BME280;11164;48.818;2.322;2023-08-12T12:40:29;100777.31;;;27.93;37.47
22000;BME280;11164;48.818;2.322;2023-08-12T12:42:54;100777.13;;;28.71;36.22
22000;BME280;11164;48.818;2.322;2023-08-12T12:45:19;100767.13;;;29.33;35.57
22000;BME280;11164;48.818;2.322;2023-08-12T12:47:44;100781.34;;;30.15;34.49
22000;BME280;11164;48.818;2.322;2023-08-12T12:50:10;100776.34;;;29.59;34.93
22000;BME280;11164;48.818;2.322;2023-08-12T12:52:35;100757.84;;;28.21;36.58
22000;BME280;11164;48.818;2.322;2023-08-12T12:55:02;100770.06;;;28.65;35.71
22000;BME280;11164;48.818;2.322;2023-08-12T12:57:29;100773.38;;;28.08;36.76
22000;BME280;11164;48.818;2.322;2023-08-12T12:59:54;100765.59;;;27.60;36.99